createdAt,value
2022-12-19T00:00:12.245Z,-5.50
2022-12-19T00:02:42.166Z,-5.50
2022-12-19T00:05:10.057Z,-5.50
2022-12-19T00:07:37.139Z,-5.70
2022-12-19T00:10:04.925Z,-5.60
2022-12-19T00:12:32.015Z,-5.60
2022-12-19T00:14:58.963Z,-5.50
2022-12-19T00:17:28.793Z,-5.60
2022-12-19T00:19:55.868Z,-5.60
2022-12-19T00:22:25.346Z,-5.40
2022-12-19T00:24:52.440Z,-5.60
2022-12-19T00:27:19.414Z,-5.30
2022-12-19T00:29:46.577Z,-5.30
2022-12-19T00:32:13.736Z,-5.40
2022-12-19T00:34:43.212Z,-5.30
2022-12-19T00:37:11.930Z,-5.30
2022-12-19T00:39:39.053Z,-5.30
2022-12-19T00:42:06.152Z,-5.30
2022-12-19T00:44:33.289Z,-4.90
2022-12-19T00:47:00.399Z,-5.00
2022-12-19T00:49:27.489Z,-5.50
2022-12-19T00:51:56.928Z,-5.10
2022-12-19T00:54:24.287Z,-5.00
2022-12-19T00:56:51.881Z,-5.00
2022-12-19T00:59:26.643Z,-5.00
2022-12-19T01:01:54.620Z,-5.00
2022-12-19T01:04:30.083Z,-5.10
2022-12-19T01:07:02.492Z,-5.10
2022-12-19T01:09:31.473Z,-4.50
2022-12-19T01:12:17.524Z,-4.80
2022-12-19T01:14:44.600Z,-4.50
2022-12-19T01:17:12.052Z,-4.60
2022-12-19T01:19:44.105Z,-4.60
2022-12-19T01:22:15.152Z,-4.40
2022-12-19T01:24:42.272Z,-4.20
2022-12-19T01:27:09.452Z,-4.50
2022-12-19T01:29:38.705Z,-4.50
2022-12-19T01:32:19.054Z,-4.50
2022-12-19T01:34:46.079Z,-4.40
2022-12-19T01:37:13.132Z,-4.50
2022-12-19T01:39:40.190Z,-4.60
2022-12-19T01:42:23.150Z,-4.50
2022-12-19T01:45:12.150Z,-4.10
2022-12-19T01:48:15.627Z,-4.40
2022-12-19T01:50:55.999Z,-4.50
2022-12-19T01:53:48.895Z,-4.40
2022-12-19T01:56:24.439Z,-4.30
2022-12-19T01:59:05.671Z,-4.10
2022-12-19T02:01:35.770Z,-4.30
2022-12-19T02:04:08.789Z,-4.30
2022-12-19T02:06:38.847Z,-4.20
2022-12-19T02:09:06.027Z,-4.20
2022-12-19T02:11:33.039Z,-4.20
2022-12-19T02:14:00.422Z,-4.30
2022-12-19T02:16:44.980Z,-4.30
2022-12-19T02:20:03.876Z,-4.40
2022-12-19T02:23:11.284Z,-4.40
2022-12-19T02:25:58.840Z,-4.30
2022-12-19T02:29:02.961Z,-4.10
2022-12-19T02:31:35.838Z,-4.10
2022-12-19T02:34:29.942Z,-3.90
2022-12-19T02:37:06.164Z,-4.10
2022-12-19T02:39:56.282Z,-3.90
2022-12-19T02:42:35.263Z,-4.30
2022-12-19T02:45:07.972Z,-3.90
2022-12-19T02:47:36.677Z,-4.10
2022-12-19T02:50:05.870Z,-4.40
2022-12-19T02:52:32.813Z,-4.00
2022-12-19T02:55:18.522Z,-3.80
2022-12-19T02:58:39.029Z,-4.10
2022-12-19T03:01:38.463Z,-3.90
2022-12-19T03:04:38.273Z,-4.00
2022-12-19T03:07:24.843Z,-3.70
2022-12-19T03:10:20.772Z,-3.70
2022-12-19T03:12:57.872Z,-4.00
2022-12-19T03:15:26.650Z,-4.00
2022-12-19T03:18:00.143Z,-3.90
2022-12-19T03:20:54.434Z,-3.70
2022-12-19T03:23:22.099Z,-3.90
2022-12-19T03:25:54.642Z,-3.70
2022-12-19T03:29:10.557Z,-3.90
2022-12-19T03:31:40.710Z,-3.80
2022-12-19T03:34:38.914Z,-3.90
2022-12-19T03:37:14.477Z,-3.60
2022-12-19T03:39:48.781Z,-4.10
2022-12-19T03:42:36.884Z,-4.00
2022-12-19T03:45:06.980Z,-4.00
2022-12-19T03:47:51.301Z,-3.70
2022-12-19T03:50:18.931Z,-4.00
2022-12-19T03:53:28.768Z,-3.80
2022-12-19T03:56:15.089Z,-4.00
2022-12-19T03:58:51.953Z,-4.00
2022-12-19T04:01:19.481Z,-4.00
2022-12-19T04:03:47.244Z,-4.10
2022-12-19T04:06:15.138Z,-4.10
2022-12-19T04:08:42.882Z,-3.70
2022-12-19T04:11:18.842Z,-4.00
2022-12-19T04:13:55.812Z,-3.80
2022-12-19T04:16:51.208Z,-4.10
2022-12-19T04:19:42.621Z,-4.00
2022-12-19T04:22:25.738Z,-4.10
2022-12-19T04:24:57.956Z,-4.10
2022-12-19T04:27:30.794Z,-4.10
2022-12-19T04:30:01.244Z,-4.00
2022-12-19T04:32:33.040Z,-4.10
2022-12-19T04:35:00.223Z,-4.20
2022-12-19T04:37:28.698Z,-3.90
2022-12-19T04:39:55.860Z,-4.10
2022-12-19T04:42:22.997Z,-4.30
2022-12-19T04:44:50.113Z,-4.00
2022-12-19T04:47:17.272Z,-3.90
2022-12-19T04:49:44.355Z,-3.80
2022-12-19T04:52:11.675Z,-3.80
2022-12-19T04:54:38.665Z,-3.80
2022-12-19T04:57:05.842Z,-3.90
2022-12-19T04:59:33.092Z,-3.70
2022-12-19T05:02:00.512Z,-3.90
2022-12-19T05:04:27.845Z,-3.90
2022-12-19T05:06:54.913Z,-3.80
2022-12-19T05:09:22.181Z,-3.60
2022-12-19T05:11:49.697Z,-4.10
2022-12-19T05:14:16.864Z,-3.70
2022-12-19T05:16:43.977Z,-3.60
2022-12-19T05:19:11.091Z,-3.80
2022-12-19T05:21:38.209Z,-3.80
2022-12-19T05:24:05.836Z,-3.80
2022-12-19T05:26:32.987Z,-3.50
2022-12-19T05:29:00.039Z,-3.80
2022-12-19T05:31:27.101Z,-3.80
2022-12-19T05:33:54.286Z,-3.70
2022-12-19T05:36:24.508Z,-3.80
2022-12-19T05:38:54.920Z,-3.70
2022-12-19T05:41:22.524Z,-3.60
2022-12-19T05:43:56.078Z,-3.60
2022-12-19T05:46:24.939Z,-3.70
2022-12-19T05:48:52.124Z,-3.70
2022-12-19T05:51:19.800Z,-3.90
2022-12-19T05:53:47.576Z,-3.80
2022-12-19T05:56:21.720Z,-3.50
2022-12-19T05:58:49.763Z,-3.70
2022-12-19T06:01:26.330Z,-3.80
2022-12-19T06:03:54.983Z,-3.60
2022-12-19T06:06:26.484Z,-3.50
2022-12-19T06:09:02.751Z,-3.60
2022-12-19T06:11:30.211Z,-3.70
2022-12-19T06:13:57.284Z,-3.60
2022-12-19T06:16:24.798Z,-3.40
2022-12-19T06:18:51.875Z,-3.50
2022-12-19T06:21:26.297Z,-3.10
2022-12-19T06:23:54.691Z,-2.80
2022-12-19T06:26:22.732Z,-3.10
2022-12-19T06:28:55.391Z,-3.00
2022-12-19T06:31:32.357Z,-3.20
2022-12-19T06:33:59.443Z,-3.20
2022-12-19T06:36:30.594Z,-3.10
2022-12-19T06:38:59.151Z,-3.20
2022-12-19T06:41:45.763Z,-3.10
2022-12-19T06:44:16.290Z,-3.20
2022-12-19T06:46:44.581Z,-3.40
2022-12-19T06:49:12.222Z,-3.10
2022-12-19T06:51:39.698Z,-3.00
2022-12-19T06:54:06.879Z,-2.80
2022-12-19T06:56:40.060Z,-2.90
2022-12-19T06:59:11.463Z,-2.90
2022-12-19T07:01:41.274Z,-2.70
2022-12-19T07:04:15.299Z,-2.80
2022-12-19T07:06:48.708Z,-2.80
2022-12-19T07:09:17.587Z,-2.50
2022-12-19T07:11:44.830Z,-2.30
2022-12-19T07:14:11.931Z,-2.90
2022-12-19T07:16:42.345Z,-2.40
2022-12-19T07:19:10.384Z,-2.30
2022-12-19T07:21:43.058Z,-2.60
2022-12-19T07:24:15.121Z,-2.40
2022-12-19T07:26:44.308Z,-2.50
2022-12-19T07:29:12.957Z,-2.40
2022-12-19T07:31:41.240Z,-2.30
2022-12-19T07:34:08.947Z,-2.50
2022-12-19T07:36:37.108Z,-2.00
2022-12-19T07:39:06.271Z,-2.20
2022-12-19T07:41:36.714Z,-1.80
2022-12-19T07:44:04.225Z,-1.60
2022-12-19T07:46:31.906Z,-1.60
2022-12-19T07:48:59.371Z,-1.80
2022-12-19T07:51:27.401Z,-1.70
2022-12-19T07:53:54.481Z,-1.50
2022-12-19T07:56:21.723Z,-1.50
2022-12-19T07:58:49.072Z,-1.60
2022-12-19T08:01:16.231Z,-1.10
2022-12-19T08:03:43.703Z,-1.20
2022-12-19T08:06:11.266Z,-1.40
2022-12-19T08:08:38.521Z,-1.30
2022-12-19T08:11:18.685Z,-1.30
2022-12-19T08:13:48.668Z,-1.30
2022-12-19T08:16:15.914Z,-1.10
2022-12-19T08:18:43.094Z,-0.70
2022-12-19T08:21:11.214Z,-0.60
2022-12-19T08:23:41.541Z,-0.30
2022-12-19T08:26:13.846Z,-0.20
2022-12-19T08:28:41.784Z,-0.20
2022-12-19T08:31:16.567Z,-0.40
2022-12-19T08:33:44.035Z,-0.20
2022-12-19T08:36:14.877Z,-0.30
2022-12-19T08:38:42.483Z,-0.30
2022-12-19T08:41:10.216Z,-0.10
2022-12-19T08:43:38.392Z,0.10
2022-12-19T08:46:07.280Z,0.00
2022-12-19T08:48:35.597Z,0.20
2022-12-19T08:51:08.595Z,0.50
2022-12-19T08:53:39.513Z,0.10
2022-12-19T08:56:22.587Z,0.20
2022-12-19T08:58:52.232Z,0.60
2022-12-19T09:01:23.945Z,0.50
2022-12-19T09:05:09.566Z,0.40
2022-12-19T09:06:39.120Z,0.30
2022-12-19T09:09:07.309Z,0.60
2022-12-19T09:11:36.208Z,0.70
2022-12-19T09:14:15.257Z,0.80
2022-12-19T09:16:48.331Z,0.90
2022-12-19T09:19:17.082Z,1.30
2022-12-19T09:21:44.903Z,1.20
2022-12-19T09:24:12.626Z,1.60
2022-12-19T09:26:42.206Z,1.60
2022-12-19T09:29:17.515Z,1.70
2022-12-19T09:31:55.693Z,1.80
2022-12-19T09:34:36.827Z,2.40
2022-12-19T09:37:17.218Z,2.50
2022-12-19T09:39:48.980Z,2.70
2022-12-19T09:42:40.582Z,3.20
2022-12-19T09:45:31.559Z,3.20
2022-12-19T09:48:02.091Z,3.30
2022-12-19T09:51:10.105Z,3.60
2022-12-19T09:54:06.277Z,3.30
2022-12-19T09:56:46.232Z,3.40
2022-12-19T09:59:19.532Z,3.70
2022-12-19T10:02:30.424Z,3.80
2022-12-19T10:05:37.662Z,3.70
2022-12-19T10:08:27.283Z,3.60
2022-12-19T10:12:38.218Z,3.80
2022-12-19T10:14:41.820Z,3.80
2022-12-19T10:17:31.728Z,3.50
2022-12-19T10:20:14.871Z,3.40
2022-12-19T10:23:02.903Z,3.00
2022-12-19T10:26:01.826Z,2.60
2022-12-19T10:29:14.437Z,2.80
2022-12-19T10:31:56.410Z,2.80
2022-12-19T10:34:32.818Z,3.00
2022-12-19T10:37:34.335Z,3.00
2022-12-19T10:40:32.273Z,2.70
2022-12-19T10:43:32.909Z,2.90
2022-12-19T10:46:17.958Z,2.80
2022-12-19T10:48:45.213Z,3.30
2022-12-19T10:51:28.320Z,3.10
2022-12-19T10:53:58.375Z,2.80
2022-12-19T10:56:37.545Z,3.10
2022-12-19T10:59:18.316Z,3.30
2022-12-19T11:02:00.164Z,3.40
2022-12-19T11:04:36.656Z,3.10
2022-12-19T11:07:03.894Z,3.10
2022-12-19T11:09:38.564Z,3.30
2022-12-19T11:14:29.750Z,3.40
2022-12-19T11:20:41.795Z,3.40
2022-12-19T11:25:56.675Z,3.50
2022-12-19T11:30:05.573Z,3.40
2022-12-19T11:30:06.370Z,3.20
2022-12-19T11:30:48.003Z,2.90
2022-12-19T11:32:42.789Z,3.20
2022-12-19T11:35:20.955Z,3.00
2022-12-19T11:38:00.615Z,2.40
2022-12-19T11:41:05.243Z,2.30
2022-12-19T11:43:53.506Z,2.70
2022-12-19T11:46:41.614Z,2.70
2022-12-19T11:49:38.684Z,2.80
2022-12-19T11:55:43.027Z,2.80
2022-12-19T11:58:12.648Z,2.60
2022-12-19T12:01:00.350Z,2.90
2022-12-19T12:04:02.528Z,2.60
2022-12-19T12:06:48.039Z,2.40
2022-12-19T12:10:18.653Z,2.50
2022-12-19T12:22:39.420Z,2.70
2022-12-19T12:23:59.904Z,2.40
2022-12-19T12:31:02.010Z,2.60
2022-12-19T12:31:49.889Z,2.50
2022-12-19T12:31:56.211Z,2.90
2022-12-19T12:32:04.350Z,2.60
2022-12-19T12:35:50.919Z,3.00
2022-12-19T12:38:26.449Z,2.30
2022-12-19T12:41:55.038Z,2.50
2022-12-19T12:44:32.713Z,2.40
2022-12-19T12:47:25.870Z,2.40
2022-12-19T12:50:13.981Z,2.40
2022-12-19T12:52:49.656Z,2.00
2022-12-19T12:55:46.101Z,2.50
2022-12-19T12:59:04.457Z,2.30
2022-12-19T13:01:40.240Z,2.10
2022-12-19T13:04:13.404Z,2.00
2022-12-19T13:07:48.599Z,2.10
2022-12-19T13:10:21.692Z,2.00
2022-12-19T13:13:02.051Z,1.90
2022-12-19T13:15:29.154Z,1.40
2022-12-19T13:17:56.220Z,1.90
2022-12-19T13:20:29.176Z,1.70
2022-12-19T13:22:59.950Z,1.70
2022-12-19T13:25:27.195Z,1.50
2022-12-19T13:28:03.607Z,1.50
2022-12-19T13:30:50.082Z,1.60
2022-12-19T13:33:20.660Z,1.40
2022-12-19T13:37:31.350Z,1.50
2022-12-19T13:39:59.623Z,1.40
2022-12-19T13:42:02.207Z,1.60
2022-12-19T13:44:41.419Z,1.30
2022-12-19T13:47:16.553Z,1.30
2022-12-19T13:49:46.327Z,1.40
2022-12-19T13:52:14.662Z,1.50
2022-12-19T13:54:51.829Z,1.10
2022-12-19T13:57:32.357Z,1.20
2022-12-19T14:00:11.286Z,1.10
2022-12-19T14:02:46.315Z,1.10
2022-12-19T14:06:15.171Z,1.40
2022-12-19T14:08:29.278Z,1.50
2022-12-19T14:11:35.401Z,1.40
2022-12-19T14:14:23.812Z,1.20
2022-12-19T14:17:23.971Z,1.00
2022-12-19T14:19:53.461Z,0.80
2022-12-19T14:22:40.499Z,0.70
2022-12-19T14:28:22.145Z,0.70
2022-12-19T14:28:29.359Z,1.00
2022-12-19T14:31:03.923Z,1.10
2022-12-19T14:33:59.081Z,0.80
2022-12-19T14:36:33.282Z,0.70
2022-12-19T14:39:27.195Z,0.70
2022-12-19T14:42:11.202Z,0.60
2022-12-19T14:52:25.543Z,0.70
2022-12-19T14:54:00.072Z,0.70
2022-12-19T14:54:23.894Z,0.70
2022-12-19T14:54:24.478Z,0.70
2022-12-19T14:56:36.213Z,0.80
2022-12-19T14:59:35.214Z,0.80
2022-12-19T15:02:09.560Z,0.70
2022-12-19T15:04:54.546Z,0.50
2022-12-19T15:07:27.972Z,0.60
2022-12-19T15:11:07.924Z,0.40
2022-12-19T15:14:48.758Z,0.20
2022-12-19T15:16:36.579Z,0.10
2022-12-19T15:19:12.456Z,0.20
2022-12-19T15:21:39.621Z,0.00
2022-12-19T15:24:06.746Z,0.10
2022-12-19T15:26:46.050Z,0.40
2022-12-19T15:29:19.877Z,0.20
2022-12-19T15:31:49.244Z,0.00
2022-12-19T15:34:41.593Z,-0.10
2022-12-19T15:37:18.952Z,0.00
2022-12-19T15:39:46.073Z,-0.10
2022-12-19T15:42:25.005Z,0.10
2022-12-19T15:44:55.864Z,0.00
2022-12-19T15:47:33.027Z,-0.50
2022-12-19T15:50:02.855Z,-0.10
2022-12-19T15:52:30.417Z,0.00
2022-12-19T15:54:58.416Z,-0.30
2022-12-19T15:57:36.550Z,-0.30
2022-12-19T16:00:18.872Z,-0.20
2022-12-19T16:05:34.894Z,-0.30
2022-12-19T16:08:02.061Z,-0.30
2022-12-19T16:10:29.940Z,-0.20
2022-12-19T16:12:58.389Z,-0.40
2022-12-19T16:15:31.299Z,-0.10
2022-12-19T16:18:00.991Z,-0.30
2022-12-19T16:20:36.507Z,-0.50
2022-12-19T16:23:04.255Z,-0.20
2022-12-19T16:25:46.923Z,-0.70
2022-12-19T16:28:23.213Z,-0.30
2022-12-19T16:30:50.738Z,-0.20
2022-12-19T16:33:24.408Z,-0.30
2022-12-19T16:36:03.970Z,-0.60
2022-12-19T16:38:32.044Z,-0.20
2022-12-19T16:40:59.232Z,-0.30
2022-12-19T16:43:36.044Z,-0.50
2022-12-19T16:46:07.003Z,-0.60
2022-12-19T16:48:36.055Z,-0.20
2022-12-19T16:51:04.494Z,-0.70
2022-12-19T16:53:35.737Z,-0.60
2022-12-19T16:56:04.018Z,-0.70
2022-12-19T16:58:31.245Z,-0.50
2022-12-19T17:00:58.356Z,-0.60
2022-12-19T17:03:37.426Z,-0.60
2022-12-19T17:06:04.964Z,-0.60
2022-12-19T17:08:32.547Z,-0.70
2022-12-19T17:10:59.877Z,-0.50
2022-12-19T17:13:27.352Z,-0.70
2022-12-19T17:15:57.149Z,-0.80
2022-12-19T17:18:37.212Z,-0.70
2022-12-19T17:21:04.417Z,-0.60
2022-12-19T17:23:32.836Z,-0.70
2022-12-19T17:26:01.148Z,-0.60
2022-12-19T17:28:29.539Z,-0.70
2022-12-19T17:31:05.009Z,-0.70
2022-12-19T17:33:41.553Z,-0.50
2022-12-19T17:36:23.024Z,-0.70
2022-12-19T17:38:51.716Z,-0.70
2022-12-19T17:41:19.039Z,-0.70
2022-12-19T17:43:46.649Z,-0.50
2022-12-19T17:46:20.254Z,-0.60
2022-12-19T17:48:54.268Z,-0.90
2022-12-19T17:51:23.631Z,-0.70
2022-12-19T17:53:51.386Z,-0.80
2022-12-19T17:56:21.005Z,-0.60
2022-12-19T17:58:49.886Z,-0.50
2022-12-19T18:01:25.392Z,-0.40
2022-12-19T18:03:56.286Z,-0.60
2022-12-19T18:06:51.530Z,-0.30
2022-12-19T18:09:24.195Z,-0.60
2022-12-19T18:11:57.605Z,-0.60
2022-12-19T18:14:49.530Z,-0.40
2022-12-19T18:17:25.826Z,-0.40
2022-12-19T18:19:53.065Z,-0.40
2022-12-19T18:22:21.409Z,-0.40
2022-12-19T18:24:48.474Z,-0.50
2022-12-19T18:27:15.594Z,-0.30
2022-12-19T18:29:45.652Z,-0.20
2022-12-19T18:32:20.898Z,-0.60
2022-12-19T18:34:48.454Z,-0.40
2022-12-19T18:37:16.078Z,-0.40
2022-12-19T18:39:43.473Z,-0.30
2022-12-19T18:42:22.171Z,-0.30
2022-12-19T18:44:50.058Z,-0.50
2022-12-19T18:47:24.033Z,-0.40
2022-12-19T18:49:52.761Z,-0.20
2022-12-19T18:52:20.214Z,-0.10
2022-12-19T18:54:47.335Z,-0.40
2022-12-19T18:57:14.839Z,-0.10
2022-12-19T18:59:48.994Z,-0.40
2022-12-19T19:02:27.691Z,-0.40
2022-12-19T19:04:56.137Z,-0.10
2022-12-19T19:07:26.599Z,-0.10
2022-12-19T19:09:54.474Z,-0.40
2022-12-19T19:12:22.251Z,-0.30
2022-12-19T19:14:49.745Z,0.00
2022-12-19T19:17:29.604Z,-0.10
2022-12-19T19:19:57.060Z,-0.60
2022-12-19T19:22:25.415Z,-0.50
2022-12-19T19:24:53.193Z,0.00
2022-12-19T19:27:21.282Z,0.00
2022-12-19T19:29:48.422Z,-0.40
2022-12-19T19:32:15.832Z,-0.20
2022-12-19T19:34:43.708Z,-0.10
2022-12-19T19:37:14.250Z,-0.10
2022-12-19T19:39:42.608Z,-0.40
2022-12-19T19:42:10.388Z,-0.30
2022-12-19T19:44:37.575Z,0.10
2022-12-19T19:47:04.983Z,0.00
2022-12-19T19:49:32.733Z,-0.10
2022-12-19T19:52:02.839Z,-0.10
2022-12-19T19:54:38.157Z,-0.10
2022-12-19T19:57:05.583Z,0.00
2022-12-19T19:59:32.690Z,-0.30
2022-12-19T20:02:03.651Z,0.20
2022-12-19T20:04:30.995Z,-0.10
2022-12-19T20:06:58.405Z,0.00
2022-12-19T20:09:25.613Z,-0.20
2022-12-19T20:11:52.813Z,0.20
2022-12-19T20:14:20.007Z,0.10
2022-12-19T20:16:47.960Z,0.20
2022-12-19T20:19:15.839Z,0.00
2022-12-19T20:21:43.985Z,0.10
2022-12-19T20:24:11.502Z,0.10
2022-12-19T20:26:38.913Z,0.10
2022-12-19T20:29:13.487Z,0.10
2022-12-19T20:31:44.200Z,0.00
2022-12-19T20:34:11.487Z,0.00
2022-12-19T20:36:40.291Z,-0.30
2022-12-19T20:39:07.399Z,-0.10
2022-12-19T20:41:34.460Z,0.00
2022-12-19T20:44:02.085Z,-0.20
2022-12-19T20:46:29.391Z,-0.20
2022-12-19T20:48:57.686Z,-0.20
2022-12-19T20:51:25.013Z,0.00
2022-12-19T20:53:56.302Z,-0.10
2022-12-19T20:56:23.520Z,-0.10
2022-12-19T20:58:50.558Z,-0.40
2022-12-19T21:01:22.850Z,-0.20
2022-12-19T21:03:51.242Z,-0.10
2022-12-19T21:06:25.963Z,-0.50
2022-12-19T21:08:55.637Z,-0.40
2022-12-19T21:11:24.043Z,0.10
2022-12-19T21:13:51.212Z,0.20
2022-12-19T21:16:21.946Z,0.10
2022-12-19T21:18:51.251Z,0.00
2022-12-19T21:21:26.668Z,0.20
2022-12-19T21:23:54.917Z,0.10
2022-12-19T21:26:26.125Z,0.30
2022-12-19T21:28:54.363Z,0.10
2022-12-19T21:31:28.680Z,0.20
2022-12-19T21:33:59.822Z,-0.20
2022-12-19T21:36:28.519Z,0.10
2022-12-19T21:39:00.020Z,0.20
2022-12-19T21:41:28.431Z,0.30
2022-12-19T21:43:56.949Z,0.30
2022-12-19T21:46:28.095Z,0.10
2022-12-19T21:48:57.329Z,0.10
2022-12-19T21:51:28.984Z,0.20
2022-12-19T21:54:02.573Z,0.10
2022-12-19T21:56:39.136Z,0.10
2022-12-19T21:59:12.548Z,0.40
2022-12-19T22:01:41.476Z,0.30
2022-12-19T22:04:22.666Z,0.40
2022-12-19T22:06:51.321Z,0.10
2022-12-19T22:09:24.903Z,0.10
2022-12-19T22:11:52.152Z,-0.20
2022-12-19T22:14:19.275Z,0.10
2022-12-19T22:16:46.427Z,0.10
2022-12-19T22:19:19.243Z,0.10
2022-12-19T22:21:47.435Z,0.00
2022-12-19T22:24:16.586Z,0.50
2022-12-19T22:26:44.030Z,0.40
2022-12-19T22:29:15.539Z,0.20
2022-12-19T22:31:43.433Z,0.10
2022-12-19T22:34:16.536Z,0.10
2022-12-19T22:36:44.951Z,0.30
2022-12-19T22:39:16.566Z,0.10
2022-12-19T22:41:44.494Z,0.10
2022-12-19T22:44:24.292Z,0.00
2022-12-19T22:46:52.707Z,0.00
2022-12-19T22:49:20.188Z,0.00
2022-12-19T22:51:47.323Z,-0.20
2022-12-19T22:54:15.016Z,0.00
2022-12-19T22:56:42.587Z,0.00
2022-12-19T22:59:12.395Z,-0.10
2022-12-19T23:01:43.067Z,-0.10
2022-12-19T23:04:15.490Z,-0.20
2022-12-19T23:06:43.673Z,-0.10
2022-12-19T23:09:16.163Z,-0.10
2022-12-19T23:11:46.849Z,-0.10
2022-12-19T23:14:17.549Z,0.00
2022-12-19T23:16:45.084Z,0.00
2022-12-19T23:19:15.364Z,-0.20
2022-12-19T23:21:42.778Z,0.00
2022-12-19T23:24:10.961Z,0.10
2022-12-19T23:26:39.235Z,-0.10
2022-12-19T23:29:11.157Z,0.00
2022-12-19T23:31:45.862Z,-0.10
2022-12-19T23:34:13.550Z,-0.10
2022-12-19T23:39:27.974Z,0.00
2022-12-19T23:41:54.999Z,-0.10
2022-12-19T23:44:22.116Z,0.00
2022-12-19T23:46:49.125Z,0.10
2022-12-19T23:49:16.131Z,0.10
2022-12-19T23:51:44.436Z,0.10
2022-12-19T23:54:11.535Z,-0.10
2022-12-19T23:56:38.677Z,-0.10
2022-12-19T23:59:07.148Z,0.00
